| time (UTC) | temp C | wind direction | speed KPH | gust KPH | rain 1hr cm | rain 24hr cm | rain mn cm | humidity % | barometer mb |
| 20260906164656 | 24 | 140 | 1.6 | 4.8 | 0.00 | 0.00 | 0.00 | 74 | 1021.6 |
| 20260906164152 | 23 | 173 | 3.2 | 3.2 | 0.00 | 0.00 | 0.00 | 75 | 1021.8 |
| 20260906163648 | 23 | 147 | 9.7 | 12.9 | 0.00 | 0.00 | 0.00 | 75 | 1021.9 |
| 20260906163145 | 23 | 98 | 0.0 | 1.6 | 0.00 | 0.00 | 0.00 | 77 | 1021.8 |
| 20260906162641 | 23 | 110 | 4.8 | 4.8 | 0.00 | 0.00 | 0.00 | 78 | 1021.8 |
| 20260906162140 | 22 | 172 | 6.4 | 9.7 | 0.00 | 0.00 | 0.00 | 81 | 1021.8 |
| 20260906161636 | 22 | 91 | 0.0 | 1.6 | 0.00 | 0.00 | 0.00 | 80 | 1021.7 |
| 20260906161134 | 22 | 108 | 0.0 | 0.0 | 0.00 | 0.00 | 0.00 | 80 | 1021.8 |
| 20260906160633 | 22 | 100 | 1.6 | 3.2 | 0.00 | 0.00 | 0.00 | 80 | 1022.0 |
| 20260906160132 | 22 | 128 | 1.6 | 1.6 | 0.00 | 0.00 | 0.00 | 82 | 1022.0 |
| 20260906155630 | 22 | 91 | 0.0 | 1.6 | 0.00 | 0.00 | 0.00 | 82 | 1022.0 |
| 20260906155126 | 22 | 76 | 0.0 | 0.0 | 0.00 | 0.00 | 0.00 | 82 | 1021.9 |
| 20260906154621 | 22 | 156 | 1.6 | 3.2 | 0.00 | 0.00 | 0.00 | 83 | 1021.9 |
| 20260906154120 | 22 | 150 | 4.8 | 4.8 | 0.00 | 0.00 | 0.00 | 83 | 1022.0 |
| 20260906153619 | 21 | 70 | 0.0 | 1.6 | 0.00 | 0.00 | 0.00 | 84 | 1021.9 |
| 20260906153114 | 21 | 95 | 3.2 | 4.8 | 0.00 | 0.00 | 0.00 | 84 | 1021.9 |
| 20260906152610 | 21 | 89 | 0.0 | 1.6 | 0.00 | 0.00 | 0.00 | 86 | 1021.9 |
| 20260906152109 | 21 | 97 | 6.4 | 6.4 | 0.00 | 0.00 | 0.00 | 86 | 1021.9 |
| 20260906151604 | 21 | 75 | 3.2 | 3.2 | 0.00 | 0.00 | 0.00 | 86 | 1021.9 |
| 20260906151059 | 21 | 71 | 0.0 | 0.0 | 0.00 | 0.00 | 0.00 | 87 | 1022.0 |
| 20260906150554 | 20 | 82 | 1.6 | 3.2 | 0.00 | 0.00 | 0.00 | 88 | 1021.9 |
| 20260906150049 | 20 | 158 | 4.8 | 6.4 | 0.00 | 0.00 | 0.00 | 88 | 1021.9 |
| 20260906145548 | 20 | 158 | 4.8 | 6.4 | 0.00 | 0.00 | 0.00 | 88 | 1021.8 |
| 20260906145043 | 20 | 119 | 8.0 | 11.3 | 0.00 | 0.00 | 0.00 | 88 | 1021.9 |
| 20260906144538 | 20 | 84 | 6.4 | 9.7 | 0.00 | 0.00 | 0.00 | 89 | 1021.6 |
| 20260906144033 | 20 | 72 | 4.8 | 4.8 | 0.00 | 0.00 | 0.00 | 88 | 1021.9 |
| 20260906143528 | 20 | 109 | 8.0 | 9.7 | 0.00 | 0.00 | 0.00 | 88 | 1021.9 |
| 20260906143025 | 20 | 86 | 3.2 | 3.2 | 0.00 | 0.00 | 0.00 | 87 | 1021.8 |
| 20260906142524 | 20 | 125 | 4.8 | 6.4 | 0.00 | 0.00 | 0.00 | 89 | 1021.7 |
| 20260906142020 | 20 | 86 | 6.4 | 6.4 | 0.00 | 0.00 | 0.00 | 88 | 1021.5 |
| 20260906141520 | 20 | 97 | 6.4 | 9.7 | 0.00 | 0.00 | 0.00 | 88 | 1021.6 |
| 20260906141015 | 20 | 87 | 1.6 | 1.6 | 0.00 | 0.00 | 0.00 | 88 | 1021.6 |
| 20260906140514 | 20 | 140 | 1.6 | 4.8 | 0.00 | 0.00 | 0.00 | 88 | 1021.6 |
| 20260906140014 | 20 | 82 | 3.2 | 3.2 | 0.00 | 0.00 | 0.00 | 89 | 1021.5 |
| 20260906135511 | 20 | 94 | 3.2 | 4.8 | 0.00 | 0.00 | 0.00 | 89 | 1021.3 |
| 20260906135007 | 20 | 105 | 3.2 | 3.2 | 0.00 | 0.00 | 0.00 | 90 | 1021.5 |
| 20260906134502 | 19 | 92 | 8.0 | 9.7 | 0.00 | 0.00 | 0.00 | 91 | 1021.4 |
| 20260906133956 | 19 | 102 | 6.4 | 6.4 | 0.00 | 0.00 | 0.00 | 91 | 1021.4 |
| 20260906133452 | 19 | 107 | 3.2 | 9.7 | 0.00 | 0.00 | 0.00 | 91 | 1021.3 |
| 20260906132947 | 20 | 106 | 9.7 | 11.3 | 0.00 | 0.00 | 0.00 | 90 | 1021.5 |
| 20260906132442 | 19 | 108 | 4.8 | 6.4 | 0.00 | 0.00 | 0.00 | 91 | 1021.3 |
| 20260906131938 | 19 | 86 | 4.8 | 6.4 | 0.00 | 0.00 | 0.00 | 91 | 1021.3 |
| 20260906131433 | 19 | 72 | 11.3 | 14.5 | 0.00 | 0.00 | 0.00 | 91 | 1021.3 |
| 20260906130929 | 19 | 150 | 8.0 | 9.7 | 0.00 | 0.00 | 0.00 | 91 | 1021.1 |
| 20260906130428 | 19 | 125 | 11.3 | 12.9 | 0.00 | 0.00 | 0.00 | 91 | 1021.1 |
| 20260906125923 | 19 | 105 | 8.0 | 11.3 | 0.00 | 0.00 | 0.00 | 91 | 1021.0 |
| 20260906125420 | 19 | 102 | 4.8 | 6.4 | 0.00 | 0.00 | 0.00 | 91 | 1021.0 |
| 20260906124920 | 19 | 72 | 4.8 | 6.4 | 0.00 | 0.00 | 0.00 | 91 | 1021.2 |
| 20260906124416 | 19 | 117 | 6.4 | 6.4 | 0.00 | 0.00 | 0.00 | 91 | 1021.0 |
| 20260906123915 | 19 | 74 | 8.0 | 11.3 | 0.00 | 0.00 | 0.00 | 90 | 1021.2 |
| 20260906123410 | 19 | 109 | 6.4 | 9.7 | 0.00 | 0.00 | 0.00 | 90 | 1021.1 |
| 20260906122910 | 19 | 84 | 11.3 | 14.5 | 0.00 | 0.00 | 0.00 | 91 | 1021.3 |
| 20260906122405 | 20 | 114 | 6.4 | 6.4 | 0.00 | 0.00 | 0.00 | 90 | 1021.1 |
| 20260906121902 | 19 | 108 | 6.4 | 9.7 | 0.00 | 0.00 | 0.00 | 90 | 1021.1 |
| 20260906121357 | 19 | 135 | 8.0 | 9.7 | 0.00 | 0.00 | 0.00 | 91 | 1021.1 |
| 20260906120853 | 19 | 113 | 9.7 | 11.3 | 0.00 | 0.00 | 0.00 | 90 | 1021.1 |
| 20260906120349 | 19 | 103 | 3.2 | 4.8 | 0.00 | 0.00 | 0.00 | 91 | 1021.1 |
| 20260906115845 | 20 | 79 | 0.0 | 0.0 | 0.00 | 0.00 | 0.00 | 91 | 1021.1 |
| 20260906115340 | 20 | 127 | 4.8 | 4.8 | 0.00 | 0.00 | 0.00 | 91 | 1020.9 |
| 20260906114839 | 19 | 113 | 3.2 | 4.8 | 0.00 | 0.00 | 0.00 | 91 | 1021.1 |
| 20260906114334 | 19 | 113 | 3.2 | 3.2 | 0.00 | 0.00 | 0.00 | 91 | 1020.6 |
| 20260906113830 | 19 | 75 | 0.0 | 0.0 | 0.00 | 0.00 | 0.00 | 91 | 1020.9 |
| 20260906113329 | 19 | 51 | 3.2 | 4.8 | 0.00 | 0.00 | 0.00 | 92 | 1020.7 |
| 20260906112824 | 19 | 102 | 3.2 | 6.4 | 0.00 | 0.00 | 0.00 | 92 | 1020.6 |
| 20260906112321 | 19 | 102 | 1.6 | 3.2 | 0.00 | 0.00 | 0.00 | 92 | 1020.6 |
| 20260906111820 | 19 | 110 | 6.4 | 9.7 | 0.00 | 0.00 | 0.00 | 92 | 1020.5 |
| 20260906111319 | 19 | 90 | 3.2 | 3.2 | 0.00 | 0.00 | 0.00 | 93 | 1020.4 |
| 20260906110814 | 19 | 128 | 3.2 | 3.2 | 0.00 | 0.00 | 0.00 | 92 | 1020.4 |
| 20260906110310 | 19 | 125 | 6.4 | 6.4 | 0.00 | 0.00 | 0.00 | 92 | 1020.3 |
| 20260906105809 | 19 | 88 | 6.4 | 6.4 | 0.00 | 0.00 | 0.00 | 92 | 1020.3 |
| 20260906105306 | 19 | 91 | 3.2 | 4.8 | 0.00 | 0.00 | 0.00 | 92 | 1020.1 |
| 20260906104801 | 19 | 80 | 4.8 | 4.8 | 0.00 | 0.00 | 0.00 | 92 | 1020.2 |
| 20260906104259 | 19 | 105 | 6.4 | 6.4 | 0.00 | 0.00 | 0.00 | 92 | 1020.3 |
| 20260906103757 | 19 | 72 | 0.0 | 1.6 | 0.00 | 0.00 | 0.00 | 92 | 1020.4 |
| 20260906103251 | 20 | 79 | 0.0 | 1.6 | 0.00 | 0.00 | 0.00 | 92 | 1020.2 |
| 20260906102748 | 19 | 66 | 0.0 | 0.0 | 0.00 | 0.00 | 0.00 | 93 | 1020.6 |
| 20260906102246 | 19 | 69 | 0.0 | 1.6 | 0.00 | 0.00 | 0.00 | 93 | 1020.4 |
| 20260906101741 | 19 | 71 | 0.0 | 0.0 | 0.00 | 0.00 | 0.00 | 93 | 1020.3 |
| 20260906101237 | 20 | 88 | 0.0 | 0.0 | 0.00 | 0.00 | 0.00 | 93 | 1020.1 |
| 20260906100732 | 20 | 81 | 0.0 | 0.0 | 0.00 | 0.00 | 0.00 | 93 | 1019.9 |
| 20260906100231 | 20 | 81 | 0.0 | 0.0 | 0.00 | 0.00 | 0.00 | 92 | 1019.6 |
| 20260906095726 | 20 | 107 | 3.2 | 3.2 | 0.00 | 0.00 | 0.00 | 93 | 1019.4 |
| 20260906095216 | 20 | 85 | 0.0 | 0.0 | 0.00 | 0.00 | 0.00 | 93 | 1019.3 |
| 20260906094715 | 20 | 101 | 1.6 | 1.6 | 0.00 | 0.00 | 0.00 | 92 | 1019.4 |
| 20260906094210 | 20 | 68 | 1.6 | 3.2 | 0.00 | 0.00 | 0.00 | 92 | 1019.2 |
| 20260906093707 | 20 | 86 | 3.2 | 3.2 | 0.00 | 0.00 | 0.00 | 92 | 1019.4 |
| 20260906093201 | 20 | 87 | 3.2 | 3.2 | 0.00 | 0.00 | 0.00 | 92 | 1019.5 |
| 20260906092657 | 20 | 59 | 1.6 | 1.6 | 0.00 | 0.00 | 0.00 | 92 | 1019.4 |
| 20260906092155 | 20 | 76 | 3.2 | 3.2 | 0.00 | 0.00 | 0.00 | 91 | 1019.4 |
| 20260906091653 | 20 | 74 | 1.6 | 1.6 | 0.00 | 0.00 | 0.00 | 91 | 1019.4 |
| 20260906091149 | 20 | 77 | 3.2 | 3.2 | 0.00 | 0.00 | 0.00 | 91 | 1019.3 |
| 20260906090645 | 21 | 79 | 0.0 | 1.6 | 0.00 | 0.00 | 0.00 | 90 | 1019.3 |
| 20260906090144 | 21 | 77 | 0.0 | 1.6 | 0.00 | 0.00 | 0.00 | 90 | 1019.5 |
| 20260906085643 | 21 | 96 | 3.2 | 3.2 | 0.00 | 0.00 | 0.00 | 90 | 1019.4 |
| 20260906085143 | 21 | 111 | 6.4 | 9.7 | 0.00 | 0.00 | 0.00 | 91 | 1019.3 |
| 20260906084637 | 21 | 54 | 1.6 | 1.6 | 0.00 | 0.00 | 0.00 | 91 | 1019.3 |
| 20260906084136 | 21 | 80 | 0.0 | 1.6 | 0.00 | 0.00 | 0.00 | 91 | 1019.4 |
| 20260906083632 | 21 | 75 | 1.6 | 1.6 | 0.00 | 0.00 | 0.00 | 91 | 1019.3 |
| 20260906083127 | 21 | 101 | 4.8 | 4.8 | 0.00 | 0.00 | 0.00 | 91 | 1019.3 |
| 20260906082622 | 21 | 119 | 6.4 | 6.4 | 0.00 | 0.00 | 0.00 | 91 | 1019.3 |
| 20260906082118 | 21 | 94 | 3.2 | 3.2 | 0.00 | 0.00 | 0.00 | 91 | 1019.2 |
| 20260906081613 | 21 | 95 | 4.8 | 4.8 | 0.00 | 0.00 | 0.00 | 90 | 1019.1 |
| 20260906081108 | 21 | 77 | 6.4 | 9.7 | 0.00 | 0.00 | 0.00 | 90 | 1019.2 |
| 20260906080606 | 21 | 66 | 1.6 | 3.2 | 0.00 | 0.00 | 0.00 | 91 | 1019.2 |
| 20260906075600 | 21 | 95 | 9.7 | 11.3 | 0.00 | 0.00 | 0.00 | 90 | 1019.3 |
| 20260906075055 | 21 | 87 | 1.6 | 3.2 | 0.00 | 0.00 | 0.00 | 90 | 1019.3 |
| 20260906074550 | 21 | 56 | 1.6 | 1.6 | 0.00 | 0.00 | 0.00 | 90 | 1019.3 |
| 20260906074049 | 21 | 65 | 1.6 | 6.4 | 0.00 | 0.00 | 0.00 | 90 | 1019.3 |
| 20260906073544 | 21 | 126 | 3.2 | 4.8 | 0.00 | 0.00 | 0.00 | 89 | 1019.2 |
| 20260906073040 | 21 | 83 | 6.4 | 9.7 | 0.00 | 0.00 | 0.00 | 90 | 1019.4 |
| 20260906072534 | 21 | 94 | 6.4 | 6.4 | 0.00 | 0.00 | 0.00 | 89 | 1019.3 |
| 20260906072031 | 21 | 93 | 1.6 | 3.2 | 0.00 | 0.00 | 0.00 | 89 | 1019.5 |
| 20260906071527 | 21 | 85 | 1.6 | 3.2 | 0.00 | 0.00 | 0.00 | 89 | 1019.7 |
| 20260906071022 | 21 | 111 | 3.2 | 4.8 | 0.00 | 0.00 | 0.00 | 89 | 1019.5 |
| 20260906070518 | 21 | 73 | 3.2 | 4.8 | 0.00 | 0.00 | 0.00 | 89 | 1019.9 |
| 20260906070014 | 21 | 79 | 1.6 | 3.2 | 0.00 | 0.00 | 0.00 | 89 | 1020.2 |
| 20260906065513 | 21 | 96 | 0.0 | 1.6 | 0.00 | 0.00 | 0.00 | 89 | 1020.0 |
| 20260906065009 | 21 | 91 | 3.2 | 4.8 | 0.00 | 0.00 | 0.00 | 88 | 1020.1 |
| 20260906064505 | 21 | 77 | 1.6 | 3.2 | 0.00 | 0.00 | 0.00 | 88 | 1020.2 |
| 20260906064000 | 21 | 109 | 1.6 | 4.8 | 0.00 | 0.00 | 0.00 | 88 | 1019.7 |
| 20260906063455 | 22 | 72 | 3.2 | 6.4 | 0.00 | 0.00 | 0.00 | 88 | 1019.7 |
| 20260906062949 | 22 | 98 | 8.0 | 11.3 | 0.00 | 0.00 | 0.00 | 88 | 1020.0 |
| 20260906062444 | 22 | 46 | 3.2 | 4.8 | 0.00 | 0.00 | 0.00 | 88 | 1019.7 |
| 20260906061939 | 22 | 88 | 1.6 | 3.2 | 0.00 | 0.00 | 0.00 | 88 | 1020.0 |
| 20260906061435 | 22 | 73 | 1.6 | 3.2 | 0.00 | 0.00 | 0.00 | 88 | 1019.9 |
| 20260906060929 | 22 | 59 | 1.6 | 1.6 | 0.00 | 0.00 | 0.00 | 88 | 1019.7 |
| 20260906060426 | 22 | 110 | 1.6 | 4.8 | 0.00 | 0.00 | 0.00 | 88 | 1019.6 |
| 20260906055923 | 22 | 72 | 3.2 | 4.8 | 0.00 | 0.00 | 0.00 | 88 | 1019.7 |
| 20260906055418 | 22 | 66 | 1.6 | 3.2 | 0.00 | 0.00 | 0.00 | 88 | 1019.7 |
| 20260906054913 | 22 | 78 | 3.2 | 4.8 | 0.00 | 0.00 | 0.00 | 88 | 1019.9 |
| 20260906054408 | 22 | 74 | 0.0 | 1.6 | 0.00 | 0.00 | 0.00 | 88 | 1019.9 |
| 20260906053904 | 22 | 58 | 4.8 | 6.4 | 0.00 | 0.00 | 0.00 | 87 | 1019.7 |
| 20260906053400 | 22 | 74 | 1.6 | 1.6 | 0.00 | 0.00 | 0.00 | 88 | 1019.7 |
| 20260906052855 | 22 | 119 | 1.6 | 3.2 | 0.00 | 0.00 | 0.00 | 87 | 1019.7 |
| 20260906052352 | 22 | 84 | 4.8 | 4.8 | 0.00 | 0.00 | 0.00 | 86 | 1019.4 |
| 20260906051848 | 22 | 84 | 4.8 | 4.8 | 0.00 | 0.00 | 0.00 | 86 | 1019.6 |
| 20260906051343 | 22 | 74 | 3.2 | 4.8 | 0.00 | 0.00 | 0.00 | 86 | 1019.3 |
| 20260906050839 | 22 | 114 | 4.8 | 4.8 | 0.00 | 0.00 | 0.00 | 86 | 1019.3 |
| 20260906050333 | 22 | 60 | 0.0 | 1.6 | 0.00 | 0.00 | 0.00 | 85 | 1019.3 |
| 20260906045832 | 22 | 77 | 0.0 | 1.6 | 0.00 | 0.00 | 0.00 | 85 | 1019.7 |
| 20260906045326 | 22 | 54 | 0.0 | 3.2 | 0.00 | 0.00 | 0.00 | 85 | 1019.7 |
| 20260906044823 | 22 | 56 | 1.6 | 3.2 | 0.00 | 0.00 | 0.00 | 85 | 1019.6 |
| 20260906044322 | 22 | 64 | 1.6 | 1.6 | 0.00 | 0.00 | 0.00 | 85 | 1019.5 |
| 20260906043818 | 22 | 93 | 0.0 | 0.0 | 0.00 | 0.00 | 0.00 | 85 | 1019.5 |
| 20260906043314 | 22 | 102 | 3.2 | 3.2 | 0.00 | 0.00 | 0.00 | 86 | 1019.4 |
| 20260906042809 | 22 | 72 | 0.0 | 0.0 | 0.00 | 0.00 | 0.00 | 86 | 1019.9 |
| 20260906042308 | 22 | 43 | 1.6 | 3.2 | 0.00 | 0.00 | 0.00 | 86 | 1019.5 |
| 20260906041804 | 23 | 52 | 1.6 | 3.2 | 0.00 | 0.00 | 0.00 | 85 | 1019.7 |
| 20260906041258 | 23 | 64 | 0.0 | 0.0 | 0.00 | 0.00 | 0.00 | 84 | 1019.6 |
| 20260906040754 | 23 | 88 | 0.0 | 0.0 | 0.00 | 0.00 | 0.00 | 85 | 1019.6 |
| 20260906040249 | 23 | 345 | 4.8 | 4.8 | 0.00 | 0.00 | 0.00 | 84 | 1019.7 |
| 20260906035744 | 23 | 92 | 1.6 | 1.6 | 0.00 | 0.00 | 0.00 | 84 | 1019.0 |
| 20260906035240 | 22 | 94 | 0.0 | 0.0 | 0.00 | 0.00 | 0.00 | 86 | 1019.3 |
| 20260906034740 | 22 | 70 | 1.6 | 1.6 | 0.00 | 0.00 | 0.00 | 86 | 1018.9 |
| 20260906034235 | 22 | 106 | 6.4 | 6.4 | 0.00 | 0.00 | 0.00 | 86 | 1018.7 |
| 20260906033730 | 22 | 95 | 1.6 | 1.6 | 0.00 | 0.00 | 0.00 | 86 | 1019.1 |
| 20260906033230 | 23 | 112 | 4.8 | 4.8 | 0.00 | 0.00 | 0.00 | 85 | 1019.3 |
| 20260906032727 | 22 | 68 | 0.0 | 0.0 | 0.00 | 0.00 | 0.00 | 86 | 1019.1 |
| 20260906032227 | 23 | 16 | 1.6 | 1.6 | 0.00 | 0.00 | 0.00 | 86 | 1019.3 |
| 20260906031722 | 23 | 80 | 0.0 | 0.0 | 0.00 | 0.00 | 0.00 | 85 | 1019.1 |
| 20260906031218 | 23 | 90 | 0.0 | 0.0 | 0.00 | 0.00 | 0.00 | 85 | 1019.1 |
| 20260906030717 | 23 | 17 | 1.6 | 3.2 | 0.00 | 0.00 | 0.00 | 86 | 1019.1 |
| 20260906030213 | 23 | 350 | 3.2 | 3.2 | 0.00 | 0.00 | 0.00 | 86 | 1019.1 |
| 20260906025711 | 23 | 63 | 1.6 | 1.6 | 0.00 | 0.00 | 0.00 | 86 | 1018.8 |
| 20260906025206 | 23 | 73 | 0.0 | 0.0 | 0.00 | 0.00 | 0.00 | 86 | 1018.8 |
| 20260906024706 | 23 | 70 | 0.0 | 1.6 | 0.00 | 0.00 | 0.00 | 85 | 1018.8 |
| 20260906024205 | 23 | 81 | 0.0 | 0.0 | 0.00 | 0.00 | 0.00 | 85 | 1018.8 |
| 20260906023701 | 23 | 46 | 1.6 | 1.6 | 0.00 | 0.00 | 0.00 | 85 | 1018.5 |
| 20260906023200 | 23 | 81 | 0.0 | 0.0 | 0.00 | 0.00 | 0.00 | 85 | 1018.5 |
| 20260906022655 | 23 | 76 | 1.6 | 1.6 | 0.00 | 0.00 | 0.00 | 85 | 1018.7 |
| 20260906022151 | 23 | 60 | 0.0 | 1.6 | 0.00 | 0.00 | 0.00 | 85 | 1018.5 |
| 20260906021647 | 23 | 100 | 0.0 | 0.0 | 0.00 | 0.00 | 0.00 | 85 | 1018.3 |
| 20260906021145 | 23 | 78 | 0.0 | 0.0 | 0.00 | 0.00 | 0.00 | 84 | 1018.3 |
| 20260906020640 | 23 | 81 | 0.0 | 0.0 | 0.00 | 0.00 | 0.00 | 84 | 1018.5 |
| 20260906020136 | 23 | 23 | 0.0 | 1.6 | 0.00 | 0.00 | 0.00 | 84 | 1018.4 |
| 20260906015630 | 23 | 73 | 0.0 | 0.0 | 0.00 | 0.00 | 0.00 | 83 | 1018.2 |
| 20260906015129 | 23 | 84 | 1.6 | 1.6 | 0.00 | 0.00 | 0.00 | 83 | 1018.3 |
| 20260906014628 | 23 | 74 | 0.0 | 0.0 | 0.00 | 0.00 | 0.00 | 83 | 1018.0 |
| 20260906014125 | 23 | 67 | 0.0 | 0.0 | 0.00 | 0.00 | 0.00 | 83 | 1018.0 |
| 20260906013620 | 23 | 87 | 0.0 | 1.6 | 0.00 | 0.00 | 0.00 | 82 | 1017.8 |
| 20260906013115 | 24 | 52 | 3.2 | 3.2 | 0.00 | 0.00 | 0.00 | 82 | 1017.9 |
| 20260906012610 | 24 | 92 | 3.2 | 3.2 | 0.00 | 0.00 | 0.00 | 81 | 1017.7 |
| 20260906012110 | 24 | 81 | 0.0 | 0.0 | 0.00 | 0.00 | 0.00 | 82 | 1017.6 |
| 20260906011607 | 24 | 72 | 3.2 | 4.8 | 0.00 | 0.00 | 0.00 | 81 | 1017.5 |
| 20260906011106 | 24 | 124 | 3.2 | 3.2 | 0.00 | 0.00 | 0.00 | 81 | 1017.4 |
| 20260906010602 | 25 | 90 | 0.0 | 1.6 | 0.00 | 0.00 | 0.00 | 80 | 1017.6 |
| 20260906010058 | 25 | 110 | 4.8 | 6.4 | 0.00 | 0.00 | 0.00 | 79 | 1017.4 |
| 20260906005557 | 25 | 60 | 0.0 | 0.0 | 0.00 | 0.00 | 0.00 | 79 | 1017.5 |
| 20260906005056 | 25 | 101 | 9.7 | 11.3 | 0.00 | 0.00 | 0.00 | 79 | 1017.6 |
| 20260906004556 | 25 | 112 | 6.4 | 9.7 | 0.00 | 0.00 | 0.00 | 79 | 1017.4 |
| 20260906004051 | 25 | 107 | 6.4 | 9.7 | 0.00 | 0.00 | 0.00 | 79 | 1017.4 |
| 20260906003546 | 25 | 83 | 3.2 | 4.8 | 0.00 | 0.00 | 0.00 | 79 | 1017.4 |
| 20260906003042 | 25 | 101 | 4.8 | 6.4 | 0.00 | 0.00 | 0.00 | 79 | 1017.3 |
| 20260906002536 | 25 | 92 | 8.0 | 11.3 | 0.00 | 0.00 | 0.00 | 79 | 1017.4 |
| 20260906002031 | 25 | 80 | 9.7 | 12.9 | 0.00 | 0.00 | 0.00 | 79 | 1017.4 |
| 20260906001526 | 25 | 45 | 8.0 | 11.3 | 0.00 | 0.00 | 0.00 | 78 | 1017.4 |
| 20260906001022 | 26 | 73 | 3.2 | 6.4 | 0.00 | 0.00 | 0.00 | 78 | 1017.4 |
| 20260906000518 | 26 | 89 | 3.2 | 9.7 | 0.00 | 0.00 | 0.00 | 77 | 1017.1 |
| 20260906000018 | 26 | 76 | 4.8 | 6.4 | 0.00 | 0.00 | 0.00 | 77 | 1017.2 |
| 20260905235511 | 26 | 56 | 3.2 | 4.8 | 0.00 | 0.00 | 0.00 | 76 | 1017.3 |
| 20260905235006 | 26 | 96 | 4.8 | 6.4 | 0.00 | 0.00 | 0.00 | 76 | 1017.3 |
| 20260905234502 | 26 | 105 | 3.2 | 4.8 | 0.00 | 0.00 | 0.00 | 75 | 1017.3 |
| 20260905233956 | 26 | 103 | 8.0 | 9.7 | 0.00 | 0.00 | 0.00 | 75 | 1017.2 |
| 20260905233452 | 27 | 77 | 8.0 | 9.7 | 0.00 | 0.00 | 0.00 | 74 | 1017.2 |
| 20260905232950 | 27 | 107 | 4.8 | 6.4 | 0.00 | 0.00 | 0.00 | 74 | 1017.3 |
| 20260905232447 | 27 | 68 | 1.6 | 1.6 | 0.00 | 0.00 | 0.00 | 75 | 1017.3 |
| 20260905231942 | 27 | 74 | 8.0 | 9.7 | 0.00 | 0.00 | 0.00 | 74 | 1016.9 |
| 20260905231438 | 27 | 78 | 4.8 | 9.7 | 0.00 | 0.00 | 0.00 | 74 | 1016.8 |
| 20260905230934 | 27 | 83 | 9.7 | 12.9 | 0.00 | 0.00 | 0.00 | 74 | 1017.0 |
| 20260905230432 | 27 | 99 | 9.7 | 16.1 | 0.00 | 0.00 | 0.00 | 74 | 1017.0 |
| 20260905225931 | 27 | 88 | 4.8 | 6.4 | 0.00 | 0.00 | 0.00 | 74 | 1017.0 |
| 20260905225426 | 27 | 51 | 4.8 | 6.4 | 0.00 | 0.00 | 0.00 | 74 | 1016.8 |
| 20260905224921 | 27 | 51 | 4.8 | 6.4 | 0.00 | 0.00 | 0.00 | 74 | 1016.9 |
| 20260905224417 | 27 | 93 | 8.0 | 14.5 | 0.00 | 0.00 | 0.00 | 74 | 1017.0 |
| 20260905223911 | 27 | 111 | 14.5 | 14.5 | 0.00 | 0.00 | 0.00 | 73 | 1017.0 |
| 20260905223409 | 27 | 67 | 1.6 | 1.6 | 0.00 | 0.00 | 0.00 | 74 | 1016.9 |
| 20260905222908 | 27 | 78 | 3.2 | 6.4 | 0.00 | 0.00 | 0.00 | 75 | 1017.1 |
| 20260905222408 | 26 | 61 | 3.2 | 3.2 | 0.00 | 0.00 | 0.00 | 76 | 1017.0 |
| 20260905221904 | 26 | 37 | 6.4 | 12.9 | 0.00 | 0.00 | 0.00 | 76 | 1017.1 |
| 20260905221401 | 26 | 95 | 4.8 | 4.8 | 0.00 | 0.00 | 0.00 | 77 | 1017.0 |
| 20260905220856 | 26 | 78 | 1.6 | 3.2 | 0.00 | 0.00 | 0.00 | 76 | 1017.1 |
| 20260905220352 | 27 | 114 | 4.8 | 9.7 | 0.00 | 0.00 | 0.00 | 75 | 1017.1 |
| 20260905215851 | 27 | 60 | 8.0 | 9.7 | 0.00 | 0.00 | 0.00 | 74 | 1017.1 |
| 20260905215347 | 27 | 355 | 9.7 | 12.9 | 0.00 | 0.00 | 0.00 | 74 | 1017.1 |
| 20260905214843 | 27 | 10 | 6.4 | 9.7 | 0.00 | 0.00 | 0.00 | 74 | 1017.3 |
| 20260905214338 | 26 | 23 | 4.8 | 6.4 | 0.00 | 0.00 | 0.00 | 75 | 1017.2 |
| 20260905213827 | 26 | 71 | 4.8 | 9.7 | 0.00 | 0.00 | 0.00 | 76 | 1017.2 |
| 20260905213323 | 26 | 66 | 6.4 | 9.7 | 0.00 | 0.00 | 0.00 | 76 | 1017.5 |
| 20260905212818 | 27 | 68 | 3.2 | 6.4 | 0.00 | 0.00 | 0.00 | 75 | 1017.5 |
| 20260905212313 | 27 | 71 | 3.2 | 3.2 | 0.00 | 0.00 | 0.00 | 73 | 1017.5 |
| 20260905211813 | 27 | 58 | 4.8 | 6.4 | 0.00 | 0.00 | 0.00 | 73 | 1017.4 |
| 20260905211308 | 27 | 46 | 4.8 | 6.4 | 0.00 | 0.00 | 0.00 | 74 | 1017.5 |
| 20260905210804 | 26 | 74 | 3.2 | 4.8 | 0.00 | 0.00 | 0.00 | 76 | 1017.6 |
| 20260905210304 | 26 | 67 | 1.6 | 4.8 | 0.00 | 0.00 | 0.00 | 77 | 1017.5 |
| 20260905205802 | 26 | 78 | 3.2 | 6.4 | 0.00 | 0.00 | 0.00 | 76 | 1017.5 |
| 20260905205257 | 26 | 79 | 3.2 | 3.2 | 0.00 | 0.00 | 0.00 | 77 | 1017.5 |
| 20260905204756 | 27 | 89 | 6.4 | 9.7 | 0.00 | 0.00 | 0.00 | 76 | 1017.7 |
| 20260905204253 | 27 | 53 | 3.2 | 4.8 | 0.00 | 0.00 | 0.00 | 74 | 1017.7 |
| 20260905203752 | 26 | 62 | 1.6 | 3.2 | 0.00 | 0.00 | 0.00 | 75 | 1017.7 |
| 20260905203247 | 27 | 123 | 3.2 | 6.4 | 0.00 | 0.00 | 0.00 | 77 | 1017.8 |
| 20260905202743 | 27 | 81 | 1.6 | 3.2 | 0.00 | 0.00 | 0.00 | 77 | 1017.8 |
| 20260905202238 | 27 | 66 | 0.0 | 1.6 | 0.00 | 0.00 | 0.00 | 78 | 1018.0 |
| 20260905201733 | 27 | 63 | 0.0 | 1.6 | 0.00 | 0.00 | 0.00 | 77 | 1017.6 |
| 20260905201228 | 27 | 40 | 4.8 | 4.8 | 0.00 | 0.00 | 0.00 | 78 | 1017.6 |
| 20260905200723 | 27 | 94 | 6.4 | 6.4 | 0.00 | 0.00 | 0.00 | 77 | 1017.6 |
| 20260905200219 | 27 | 62 | 3.2 | 6.4 | 0.00 | 0.00 | 0.00 | 78 | 1017.5 |
| 20260905195718 | 27 | 82 | 0.0 | 1.6 | 0.00 | 0.00 | 0.00 | 78 | 1017.4 |
| 20260905195218 | 27 | 23 | 4.8 | 4.8 | 0.00 | 0.00 | 0.00 | 77 | 1017.7 |
| 20260905194713 | 27 | 79 | 4.8 | 9.7 | 0.00 | 0.00 | 0.00 | 77 | 1018.0 |
| 20260905194213 | 27 | 39 | 4.8 | 6.4 | 0.00 | 0.00 | 0.00 | 78 | 1018.0 |
| 20260905193707 | 27 | 60 | 0.0 | 1.6 | 0.00 | 0.00 | 0.00 | 77 | 1018.1 |
| 20260905193202 | 27 | 79 | 3.2 | 6.4 | 0.00 | 0.00 | 0.00 | 77 | 1018.1 |
| 20260905192658 | 27 | 21 | 6.4 | 9.7 | 0.00 | 0.00 | 0.00 | 77 | 1018.1 |
| 20260905192154 | 27 | 84 | 4.8 | 9.7 | 0.00 | 0.00 | 0.00 | 77 | 1017.9 |
| 20260905191654 | 27 | 88 | 8.0 | 11.3 | 0.00 | 0.00 | 0.00 | 77 | 1017.9 |
| 20260905191151 | 28 | 56 | 3.2 | 4.8 | 0.00 | 0.00 | 0.00 | 75 | 1018.1 |
| 20260905190650 | 28 | 66 | 1.6 | 4.8 | 0.00 | 0.00 | 0.00 | 75 | 1017.9 |
| 20260905190149 | 28 | 34 | 3.2 | 4.8 | 0.00 | 0.00 | 0.00 | 75 | 1018.1 |
| 20260905185648 | 28 | 340 | 6.4 | 11.3 | 0.00 | 0.00 | 0.00 | 74 | 1018.1 |
| 20260905185143 | 28 | 63 | 3.2 | 4.8 | 0.00 | 0.00 | 0.00 | 75 | 1017.9 |
| 20260905184643 | 28 | 101 | 4.8 | 6.4 | 0.00 | 0.00 | 0.00 | 75 | 1017.9 |
| 20260905184142 | 28 | 48 | 3.2 | 4.8 | 0.00 | 0.00 | 0.00 | 75 | 1018.0 |
| 20260905183641 | 28 | 304 | 4.8 | 6.4 | 0.00 | 0.00 | 0.00 | 74 | 1017.9 |
| 20260905183137 | 28 | 89 | 12.9 | 16.1 | 0.00 | 0.00 | 0.00 | 75 | 1017.9 |
| 20260905182636 | 28 | 49 | 1.6 | 4.8 | 0.00 | 0.00 | 0.00 | 74 | 1017.8 |
| 20260905182136 | 28 | 39 | 6.4 | 6.4 | 0.00 | 0.00 | 0.00 | 75 | 1018.0 |
| 20260905181631 | 29 | 22 | 4.8 | 4.8 | 0.00 | 0.00 | 0.00 | 74 | 1018.0 |
| 20260905181130 | 28 | 14 | 3.2 | 4.8 | 0.00 | 0.00 | 0.00 | 73 | 1018.0 |
| 20260905180625 | 28 | 42 | 3.2 | 4.8 | 0.00 | 0.00 | 0.00 | 75 | 1018.0 |
| 20260905180121 | 30 | 330 | 9.7 | 12.9 | 0.00 | 0.00 | 0.00 | 72 | 1017.9 |
| 20260905175620 | 28 | 78 | 6.4 | 11.3 | 0.00 | 0.00 | 0.00 | 75 | 1018.1 |
| 20260905175115 | 28 | 77 | 9.7 | 11.3 | 0.00 | 0.00 | 0.00 | 74 | 1017.8 |
| 20260905174611 | 28 | 64 | 3.2 | 4.8 | 0.00 | 0.00 | 0.00 | 77 | 1017.9 |
| 20260905174106 | 28 | 351 | 9.7 | 12.9 | 0.00 | 0.00 | 0.00 | 77 | 1017.8 |
| 20260905173603 | 28 | 85 | 3.2 | 3.2 | 0.00 | 0.00 | 0.00 | 75 | 1018.1 |
| 20260905173058 | 27 | 20 | 6.4 | 6.4 | 0.00 | 0.00 | 0.00 | 78 | 1018.0 |
| 20260905172556 | 28 | 332 | 3.2 | 4.8 | 0.00 | 0.00 | 0.00 | 77 | 1018.0 |
| 20260905172052 | 28 | 84 | 4.8 | 6.4 | 0.00 | 0.00 | 0.00 | 76 | 1018.0 |
| 20260905171548 | 28 | 81 | 3.2 | 4.8 | 0.00 | 0.00 | 0.00 | 77 | 1018.1 |
| 20260905171044 | 28 | 349 | 1.6 | 4.8 | 0.00 | 0.00 | 0.00 | 76 | 1018.1 |
| 20260905170540 | 27 | 48 | 3.2 | 3.2 | 0.00 | 0.00 | 0.00 | 77 | 1018.1 |
| 20260905170035 | 28 | 85 | 9.7 | 14.5 | 0.00 | 0.00 | 0.00 | 77 | 1018.0 |
| 20260905165530 | 28 | 52 | 1.6 | 3.2 | 0.00 | 0.00 | 0.00 | 77 | 1018.1 |
| 20260905165020 | 28 | 71 | 1.6 | 4.8 | 0.00 | 0.00 | 0.00 | 77 | 1018.2 |